Time;durP1;ratioP1;P1;durP2;ratioP2;P2;SDS_P1;SDS_P2;PMS_P1;PMS_P2;Temp;Humidity;BMP_temperature;BMP_pressure;BME280_temperature;BME280_humidity;BME280_pressure;Samples;Min_cycle;Max_cycle;Signal;HPM_P1;HPM_P2
2022/05/05 00:01:22;;;;;;;13.65;9.05;;;;;;;11.24;69.12;101787.53;5029188;28;20073;-71
2022/05/05 00:03:47;;;;;;;16.70;8.85;;;;;;;11.23;68.61;101792.13;5032588;28;20029;-70
2022/05/05 00:06:13;;;;;;;12.27;8.88;;;;;;;11.11;70.10;101789.19;5032152;28;20057;-68
2022/05/05 00:08:38;;;;;;;17.27;9.50;;;;;;;11.11;69.40;101793.75;5031832;28;20064;-70
2022/05/05 00:16:31;;;;;;;15.20;9.32;;;;;;;11.00;71.00;101795.19;5032655;28;20088;-66
2022/05/05 00:18:57;;;;;;;17.95;9.32;;;;;;;11.04;70.21;101793.75;5032421;28;20052;-69
2022/05/05 00:21:22;;;;;;;16.30;9.18;;;;;;;10.93;70.93;101797.88;5030842;28;20033;-68
2022/05/05 00:23:47;;;;;;;13.73;8.70;;;;;;;10.93;71.68;101795.19;5032426;28;20025;-67
2022/05/05 00:26:13;;;;;;;15.15;9.55;;;;;;;10.84;71.59;101791.00;5032101;28;20116;-70
2022/05/05 00:28:38;;;;;;;16.83;9.38;;;;;;;10.84;71.78;101792.84;5031944;28;20071;-68
2022/05/05 00:31:03;;;;;;;17.20;9.23;;;;;;;10.79;71.77;101794.31;5032019;28;20431;-70
2022/05/05 00:33:28;;;;;;;17.02;9.90;;;;;;;10.86;71.52;101790.78;5031697;28;20025;-69
2022/05/05 00:35:54;;;;;;;13.05;9.52;;;;;;;10.80;72.18;101782.44;5032209;28;20431;-68
2022/05/05 00:38:19;;;;;;;17.13;9.35;;;;;;;10.72;71.83;101789.88;5032343;28;20116;-71
2022/05/05 00:40:44;;;;;;;16.90;9.65;;;;;;;10.64;72.36;101783.63;5030484;28;20037;-71
2022/05/05 00:43:10;;;;;;;16.50;9.90;;;;;;;10.60;72.81;101789.66;5031878;28;20370;-69
2022/05/05 00:45:35;;;;;;;15.05;9.75;;;;;;;10.53;72.74;101781.50;5031367;28;20036;-68
2022/05/05 00:48:05;;;;;;;13.95;9.57;;;;;;;10.54;73.10;101787.75;5032323;28;20471;-70
2022/05/05 00:50:33;;;;;;;16.65;9.50;;;;;;;10.45;72.81;101779.81;5047123;28;20144;-71
2022/05/05 00:52:58;;;;;;;17.08;10.13;;;;;;;10.42;73.61;101780.19;5032099;28;20110;-71
2022/05/05 00:55:24;;;;;;;17.30;9.73;;;;;;;10.49;74.19;101785.63;5032088;28;20472;-70
2022/05/05 00:57:49;;;;;;;17.77;10.00;;;;;;;10.48;73.92;101781.28;5031984;28;20036;-69
2022/05/05 01:00:15;;;;;;;14.75;9.57;;;;;;;10.54;73.33;101782.34;5032031;28;20064;-69
2022/05/05 01:02:40;;;;;;;18.65;9.95;;;;;;;10.45;73.96;101779.81;5028069;28;20049;-68
2022/05/05 01:05:06;;;;;;;16.30;9.13;;;;;;;10.48;73.56;101783.13;5032257;28;20041;-67
2022/05/05 01:07:31;;;;;;;17.52;9.77;;;;;;;10.43;74.07;101786.44;5030568;28;20120;-70
2022/05/05 01:09:58;;;;;;;15.38;10.07;;;;;;;10.42;73.45;101788.31;5031900;28;20029;-70
2022/05/05 01:12:28;;;;;;;15.00;9.75;;;;;;;10.53;73.19;101786.09;5031576;28;20457;-69
2022/05/05 01:14:54;;;;;;;15.97;10.23;;;;;;;10.54;73.98;101788.59;5031338;28;20108;-68
2022/05/05 01:17:19;;;;;;;16.75;9.95;;;;;;;10.54;72.81;101787.75;5031801;28;20331;-70
2022/05/05 01:19:44;;;;;;;16.40;10.18;;;;;;;10.51;73.27;101778.16;5031704;28;20041;-69
2022/05/05 01:22:10;;;;;;;15.20;9.80;;;;;;;10.53;74.26;101775.25;5031663;28;20026;-67
2022/05/05 01:30:05;;;;;;;15.38;10.25;;;;;;;10.63;73.30;101770.31;5031744;28;20095;-68
2022/05/05 01:32:31;;;;;;;14.75;9.60;;;;;;;10.59;73.49;101777.16;5031733;28;20045;-68
2022/05/05 01:34:57;;;;;;;17.40;9.80;;;;;;;10.54;73.01;101775.06;5031017;28;20041;-69
2022/05/05 01:37:22;;;;;;;17.58;10.05;;;;;;;10.51;72.12;101777.31;5031855;28;20083;-70
2022/05/05 01:39:48;;;;;;;16.33;9.23;;;;;;;10.53;73.25;101775.25;5031579;28;20042;-68
2022/05/05 01:42:13;;;;;;;13.93;9.63;;;;;;;10.56;73.75;101777.56;5031757;28;20057;-69
2022/05/05 01:44:38;;;;;;;15.60;10.10;;;;;;;10.51;73.42;101771.91;5034721;28;20103;-69
2022/05/05 01:47:04;;;;;;;14.45;9.73;;;;;;;10.51;73.35;101766.47;5035041;28;20037;-67
2022/05/05 01:49:29;;;;;;;16.10;10.43;;;;;;;10.44;72.99;101775.41;5033786;28;20056;-68
2022/05/05 01:51:55;;;;;;;16.45;10.35;;;;;;;10.48;73.65;101772.31;5034879;28;20036;-70
2022/05/05 01:54:20;;;;;;;15.55;10.27;;;;;;;10.46;73.29;101783.31;5034324;28;20445;-67
2022/05/05 01:56:46;;;;;;;17.52;10.10;;;;;;;10.47;74.16;101782.31;5034741;28;20030;-68
2022/05/05 01:59:11;;;;;;;16.83;9.98;;;;;;;10.44;74.71;101788.94;5034812;28;20408;-71
2022/05/05 02:01:36;;;;;;;15.00;10.07;;;;;;;10.44;75.05;101778.13;5030458;28;20045;-71
2022/05/05 02:04:01;;;;;;;16.17;10.20;;;;;;;10.44;74.28;101777.28;5035035;28;20453;-69
2022/05/05 02:06:27;;;;;;;14.98;10.43;;;;;;;10.45;75.00;101776.28;5034860;28;20046;-71
2022/05/05 02:08:52;;;;;;;15.10;10.13;;;;;;;10.51;75.07;101786.28;5034299;28;20029;-69
2022/05/05 02:11:17;;;;;;;18.33;9.73;;;;;;;10.57;74.73;101792.78;5034392;28;20033;-68
2022/05/05 02:13:43;;;;;;;15.15;9.73;;;;;;;10.58;74.63;101787.16;5033678;28;20029;-69
2022/05/05 02:16:08;;;;;;;15.10;9.82;;;;;;;10.60;74.64;101792.38;5032774;28;20037;-70
2022/05/05 02:18:33;;;;;;;17.67;10.32;;;;;;;10.60;74.85;101792.38;5034007;28;20068;-69
2022/05/05 02:20:58;;;;;;;14.02;9.43;;;;;;;10.62;74.90;101791.09;5034319;28;20087;-68
2022/05/05 02:23:24;;;;;;;12.18;9.32;;;;;;;10.61;74.80;101792.16;5033896;28;20028;-70
2022/05/05 02:25:49;;;;;;;15.32;9.70;;;;;;;10.57;74.73;101788.19;5033718;28;20087;-72
2022/05/05 02:28:15;;;;;;;15.95;9.52;;;;;;;10.59;75.76;101796.09;5033956;28;20036;-72
2022/05/05 02:30:40;;;;;;;15.20;9.85;;;;;;;10.62;75.58;101791.09;5033709;28;20104;-67
2022/05/05 02:33:06;;;;;;;15.32;10.10;;;;;;;10.63;75.59;101797.38;5033536;28;20068;-69
2022/05/05 02:35:31;;;;;;;15.05;9.98;;;;;;;10.58;75.61;101792.56;5034080;28;20060;-72
2022/05/05 02:40:41;;;;;;;14.80;9.80;;;;;;;10.51;75.59;101783.56;5033773;28;20425;-67
2022/05/05 02:43:06;;;;;;;14.18;9.38;;;;;;;10.55;74.83;101789.41;5034125;28;20041;-67
2022/05/05 02:45:32;;;;;;;17.23;10.00;;;;;;;10.55;75.14;101787.56;5034318;28;20117;-67
2022/05/05 02:47:58;;;;;;;18.15;10.05;;;;;;;10.53;75.75;101791.50;5032013;28;20381;-69
2022/05/05 02:50:24;;;;;;;16.58;10.07;;;;;;;10.57;75.41;101785.47;5034199;28;20037;-68
2022/05/05 02:52:49;;;;;;;14.52;9.65;;;;;;;10.54;75.51;101793.19;5033592;28;20485;-67
2022/05/05 02:55:14;;;;;;;17.90;10.35;;;;;;;10.51;76.03;101794.41;5033770;28;20080;-68
2022/05/05 02:57:40;;;;;;;15.02;9.93;;;;;;;10.47;76.53;101798.53;5033692;28;20048;-68
2022/05/05 03:00:10;;;;;;;17.58;9.70;;;;;;;10.38;76.48;101788.94;5032539;28;20026;-68
2022/05/05 03:02:36;;;;;;;14.17;9.90;;;;;;;10.38;77.60;101789.75;5029941;28;20119;-68
2022/05/05 03:05:01;;;;;;;11.52;9.27;;;;;;;10.40;77.45;101792.25;5033306;28;20488;-70
2022/05/05 03:07:27;;;;;;;14.23;9.73;;;;;;;10.42;77.13;101784.78;5033739;28;20372;-67
2022/05/05 03:09:52;;;;;;;14.40;10.02;;;;;;;10.52;76.98;101784.41;5033459;28;20112;-67
2022/05/05 03:12:17;;;;;;;13.82;9.57;;;;;;;10.46;77.11;101786.03;5033213;28;20099;-67
2022/05/05 03:14:46;;;;;;;16.70;9.98;;;;;;;10.52;77.80;101784.41;5033528;28;20037;-68
2022/05/05 03:17:12;;;;;;;18.25;9.98;;;;;;;10.50;76.97;101787.31;5033191;28;20037;-69
2022/05/05 03:19:37;;;;;;;12.90;10.02;;;;;;;10.60;77.30;101790.47;5033308;28;20476;-70
2022/05/05 03:22:03;;;;;;;16.30;10.43;;;;;;;10.50;76.48;101789.19;5032725;28;20396;-70
2022/05/05 03:24:29;;;;;;;17.65;9.73;;;;;;;10.50;76.61;101787.31;5033523;28;20370;-70
2022/05/05 03:26:54;;;;;;;15.07;9.95;;;;;;;10.43;77.08;101787.28;5033459;28;20039;-67
2022/05/05 03:29:19;;;;;;;16.65;10.38;;;;;;;10.48;77.46;101788.53;5033252;28;20030;-66
2022/05/05 03:31:44;;;;;;;15.77;10.25;;;;;;;10.52;77.54;101795.22;5032906;28;20421;-67
2022/05/05 03:34:10;;;;;;;18.92;10.88;;;;;;;10.49;77.92;101798.34;5033237;28;20040;-70
2022/05/05 03:36:35;;;;;;;15.27;10.30;;;;;;;10.48;77.16;101791.25;5033302;28;20461;-69
2022/05/05 03:39:00;;;;;;;18.73;10.55;;;;;;;10.49;76.76;101801.88;5032752;28;20041;-68
2022/05/05 03:41:26;;;;;;;15.30;10.30;;;;;;;10.48;76.27;101797.50;5033423;28;20427;-69
2022/05/05 03:43:52;;;;;;;17.88;11.15;;;;;;;10.49;76.99;101798.34;5032435;28;20473;-69
2022/05/05 03:46:17;;;;;;;17.77;11.10;;;;;;;10.50;76.54;101805.44;5031825;28;20028;-66
2022/05/05 03:48:43;;;;;;;18.67;10.85;;;;;;;10.54;76.26;101798.59;5032468;28;20112;-68
2022/05/05 03:51:08;;;;;;;17.25;10.98;;;;;;;10.59;75.78;101807.75;5033100;28;20072;-70
2022/05/05 03:53:33;;;;;;;14.80;10.13;;;;;;;10.64;76.60;101799.03;5032308;28;20095;-67
2022/05/05 03:55:59;;;;;;;18.83;11.10;;;;;;;10.63;76.92;101809.03;5032434;28;20124;-69
2022/05/05 03:58:28;;;;;;;18.00;10.90;;;;;;;10.68;77.25;101811.13;5032745;28;20047;-70
2022/05/05 04:00:53;;;;;;;21.55;11.10;;;;;;;10.64;75.85;101809.84;5030285;28;20017;-67
2022/05/05 04:03:30;;;;;;;16.75;10.48;;;;;;;10.59;75.47;101809.63;5031189;28;20045;-67
2022/05/05 04:05:56;;;;;;;20.40;11.52;;;;;;;10.59;75.83;101818.56;5031847;28;20088;-67
2022/05/05 04:08:21;;;;;;;15.75;11.07;;;;;;;10.58;75.69;101816.94;5032305;28;20480;-68
2022/05/05 04:10:46;;;;;;;18.52;10.88;;;;;;;10.59;76.96;101817.75;5031165;28;20476;-68
2022/05/05 04:13:12;;;;;;;19.60;11.48;;;;;;;10.58;76.77;101816.94;5032201;28;20087;-66
2022/05/05 04:15:37;;;;;;;20.92;11.38;;;;;;;10.55;76.53;101821.88;5032718;28;20044;-67
2022/05/05 04:18:03;;;;;;;18.48;11.38;;;;;;;10.51;76.34;101828.72;5032015;28;20898;-66
2022/05/05 04:20:28;;;;;;;18.83;11.57;;;;;;;10.53;76.10;101826.69;5032715;28;20034;-69
2022/05/05 04:22:55;;;;;;;18.17;12.40;;;;;;;10.57;76.59;101826.06;5032055;28;20021;-69
2022/05/05 04:25:21;;;;;;;18.67;11.20;;;;;;;10.59;76.88;101832.09;5032468;28;20041;-70
2022/05/05 04:27:47;;;;;;;17.27;11.57;;;;;;;10.61;76.21;101826.50;5032181;28;20033;-67
2022/05/05 04:30:13;;;;;;;19.30;11.75;;;;;;;10.57;75.78;101834.19;5032314;28;20120;-67
2022/05/05 04:32:39;;;;;;;17.92;11.43;;;;;;;10.61;75.65;101829.19;5031869;28;20520;-70
2022/05/05 04:35:05;;;;;;;21.75;11.75;;;;;;;10.58;75.51;101833.16;5031953;28;20117;-67
2022/05/05 04:37:30;;;;;;;18.92;12.45;;;;;;;10.59;74.84;101839.41;5032287;28;20112;-69
2022/05/05 04:39:55;;;;;;;16.70;11.82;;;;;;;10.55;75.03;101833.56;5032227;28;20025;-69
2022/05/05 04:42:21;;;;;;;22.10;12.10;;;;;;;10.57;75.48;101844.19;5032232;28;20030;-69
2022/05/05 04:44:46;;;;;;;21.55;12.38;;;;;;;10.62;76.38;101839.00;5032119;28;20034;-67
2022/05/05 04:47:11;;;;;;;19.33;11.35;;;;;;;10.62;76.26;101839.81;5032087;28;20038;-67
2022/05/05 04:49:38;;;;;;;18.30;10.80;;;;;;;10.61;77.25;101843.59;5032374;28;20030;-70
2022/05/05 04:52:03;;;;;;;16.05;11.57;;;;;;;10.63;77.85;101840.69;5031872;28;20034;-67
2022/05/05 04:54:29;;;;;;;16.45;10.98;;;;;;;10.67;77.82;101844.63;5032111;28;20040;-66
2022/05/05 04:56:54;;;;;;;28.85;12.45;;;;;;;10.68;78.08;101848.19;5031866;28;20380;-69
2022/05/05 04:59:19;;;;;;;16.52;11.13;;;;;;;10.72;77.48;101852.16;5031976;28;20025;-68
2022/05/05 05:01:44;;;;;;;22.00;11.38;;;;;;;10.75;77.82;101849.03;5028433;28;20053;-69
2022/05/05 05:04:10;;;;;;;20.33;11.75;;;;;;;10.76;77.85;101856.97;5031904;28;20025;-68
2022/05/05 05:06:35;;;;;;;23.80;11.95;;;;;;;10.78;76.79;101856.78;5032314;28;20103;-69
2022/05/05 05:09:01;;;;;;;20.55;11.00;;;;;;;10.83;77.73;101857.00;5031089;28;20461;-68
2022/05/05 05:11:27;;;;;;;21.95;11.23;;;;;;;10.81;78.50;101862.63;5031910;28;20033;-69
2022/05/05 05:13:52;;;;;;;19.02;11.25;;;;;;;10.84;77.90;101858.69;5031930;28;20033;-69
2022/05/05 05:16:18;;;;;;;16.98;11.35;;;;;;;10.86;78.20;101864.72;5032153;28;20037;-68
2022/05/05 05:18:43;;;;;;;16.52;10.43;;;;;;;10.86;78.08;101872.03;5035830;28;20037;-68
2022/05/05 05:21:08;;;;;;;17.52;10.77;;;;;;;10.88;78.11;101869.94;5035679;28;20032;-66
2022/05/05 05:23:35;;;;;;;14.90;10.98;;;;;;;10.92;77.41;101871.22;5035589;28;20025;-69
2022/05/05 05:26:01;;;;;;;20.33;11.43;;;;;;;10.94;77.61;101869.13;5035161;28;20030;-70
2022/05/05 05:28:26;;;;;;;20.20;10.60;;;;;;;10.91;77.59;101869.53;5035383;28;20123;-67
2022/05/05 05:30:51;;;;;;;19.85;11.15;;;;;;;10.97;76.82;101880.38;5035219;28;20033;-68
2022/05/05 05:33:17;;;;;;;18.33;10.32;;;;;;;10.93;77.76;101881.84;5035160;28;20116;-66
2022/05/05 05:35:44;;;;;;;18.77;11.43;;;;;;;10.96;77.43;101884.16;5035441;28;20030;-70
2022/05/05 05:38:10;;;;;;;19.65;11.75;;;;;;;10.96;77.36;101877.88;5035351;28;20033;-71
2022/05/05 05:40:36;;;;;;;18.92;10.90;;;;;;;11.00;76.69;101881.84;5035386;28;20034;-66
2022/05/05 05:43:01;;;;;;;20.33;11.30;;;;;;;10.99;76.75;101881.03;5034929;28;20212;-66
2022/05/05 05:45:27;;;;;;;19.08;11.25;;;;;;;10.93;76.72;101881.84;5035444;28;20424;-68
2022/05/05 05:47:52;;;;;;;19.90;12.32;;;;;;;10.94;76.87;101888.91;5034858;28;20372;-68
2022/05/05 05:50:17;;;;;;;21.10;11.43;;;;;;;10.93;76.72;101884.56;5035121;28;20029;-72
2022/05/05 05:52:43;;;;;;;20.48;11.95;;;;;;;10.99;76.72;101893.72;5034733;28;20033;-72
2022/05/05 05:55:08;;;;;;;21.95;12.15;;;;;;;11.00;76.80;101895.41;5035158;28;20423;-70
2022/05/05 05:57:33;;;;;;;21.00;11.52;;;;;;;11.01;76.74;101886.25;5034773;28;20040;-69
2022/05/05 05:59:59;;;;;;;18.58;11.88;;;;;;;11.06;77.38;101893.75;5034705;28;20025;-70
2022/05/05 06:05:08;;;;;;;28.13;12.43;;;;;;;11.12;77.22;101899.19;5034526;28;20059;-71
2022/05/05 06:07:33;;;;;;;25.73;12.77;;;;;;;11.14;77.60;101907.09;5033650;28;20025;-68
2022/05/05 06:09:59;;;;;;;33.28;13.52;;;;;;;11.17;77.52;101902.16;5034450;28;20431;-70
2022/05/05 06:12:24;;;;;;;31.77;13.43;;;;;;;11.27;77.32;101909.88;5033151;28;20136;-68
2022/05/05 06:14:49;;;;;;;32.45;13.80;;;;;;;11.32;76.63;101901.97;5034859;28;20033;-71
2022/05/05 06:17:14;;;;;;;32.13;14.05;;;;;;;11.38;76.55;101903.03;5034050;28;20021;-71
2022/05/05 06:19:41;;;;;;;26.15;13.82;;;;;;;11.48;76.14;101899.94;5034534;28;20029;-71
2022/05/05 06:22:06;;;;;;;28.42;13.57;;;;;;;11.51;76.13;101896.81;5034344;28;20080;-72
2022/05/05 06:24:32;;;;;;;26.15;14.57;;;;;;;11.61;76.59;101904.53;5033484;28;20041;-72
2022/05/05 06:26:57;;;;;;;20.98;13.77;;;;;;;11.64;76.53;101909.53;5032366;28;20034;-70
2022/05/05 06:29:24;;;;;;;23.10;13.48;;;;;;;11.67;75.75;101901.84;5033563;28;20111;-70
2022/05/05 06:31:50;;;;;;;24.63;13.23;;;;;;;11.73;74.20;101910.19;5021562;28;20149;-75
2022/05/05 06:34:15;;;;;;;27.30;12.77;;;;;;;11.82;73.80;101904.38;5027581;28;20116;-70
2022/05/05 06:36:41;;;;;;;22.80;13.13;;;;;;;11.91;72.89;101909.56;5033732;28;20041;-70
2022/05/05 06:39:06;;;;;;;27.17;14.32;;;;;;;11.99;73.26;101909.41;5033946;28;20025;-70
2022/05/05 06:41:32;;;;;;;23.13;13.57;;;;;;;12.10;71.88;101914.19;5034404;28;20029;-69
2022/05/05 06:43:57;;;;;;;22.52;13.20;;;;;;;12.16;70.68;101913.34;5034010;28;20033;-70
2022/05/05 06:46:23;;;;;;;25.00;13.38;;;;;;;12.20;69.07;101903.75;5034016;28;20034;-69
2022/05/05 06:48:48;;;;;;;22.42;14.25;;;;;;;12.23;68.64;101911.47;5034273;28;20032;-70
2022/05/05 06:51:13;;;;;;;21.92;14.75;;;;;;;12.34;69.13;101917.31;5034147;28;20029;-69
2022/05/05 06:53:38;;;;;;;27.30;15.68;;;;;;;12.40;69.40;101916.47;5033942;28;20116;-69
2022/05/05 06:56:04;;;;;;;30.70;16.13;;;;;;;12.47;70.30;101911.88;5033666;28;20029;-70
2022/05/05 06:58:30;;;;;;;25.20;16.98;;;;;;;12.61;69.74;101920.00;5034122;28;20483;-69
2022/05/05 07:05:23;;;;;;;31.42;20.02;;;;;;;12.81;70.07;101926.19;4980481;28;20053;-70
2022/05/05 07:06:37;;;;;;;39.13;21.80;;;;;;;12.93;70.28;101923.66;5014156;28;20049;-70
2022/05/05 07:11:54;;;;;;;47.58;30.25;;;;;;;13.12;70.82;101930.06;5012723;28;20042;-69
2022/05/05 07:14:19;;;;;;;39.13;25.90;;;;;;;13.13;69.69;101931.72;5014010;28;20022;-70
2022/05/05 07:16:45;;;;;;;42.67;27.58;;;;;;;13.16;69.82;101936.72;5013495;28;20032;-70
2022/05/05 07:19:10;;;;;;;41.53;25.60;;;;;;;13.24;69.92;101939.22;5013425;28;20389;-70
2022/05/05 07:21:37;;;;;;;43.72;28.60;;;;;;;13.24;69.16;101941.94;5013809;28;20026;-70
2022/05/05 07:24:03;;;;;;;47.85;27.73;;;;;;;13.23;69.55;101937.53;5013492;28;20454;-69
2022/05/05 07:26:28;;;;;;;46.42;31.23;;;;;;;13.35;70.89;101950.50;5012350;28;20045;-69
2022/05/05 07:28:53;;;;;;;55.35;36.47;;;;;;;13.32;70.26;101940.03;5013145;28;20026;-69
2022/05/05 07:31:19;;;;;;;50.35;33.67;;;;;;;13.38;70.68;101948.16;5013151;28;20037;-70
2022/05/05 07:33:44;;;;;;;42.03;27.67;;;;;;;13.49;70.68;101946.66;5013609;28;20029;-69
2022/05/05 07:36:09;;;;;;;51.28;33.28;;;;;;;13.54;70.16;101949.56;5013336;28;20026;-69
2022/05/05 07:38:35;;;;;;;51.55;33.80;;;;;;;13.63;70.53;101966.44;5013199;28;20592;-69
2022/05/05 07:41:00;;;;;;;46.58;31.27;;;;;;;13.71;71.17;101955.31;5013305;28;20432;-70
2022/05/05 07:43:26;;;;;;;51.90;33.95;;;;;;;13.84;70.88;101948.94;5013263;28;20022;-69
2022/05/05 07:45:51;;;;;;;49.65;32.58;;;;;;;13.97;70.46;101965.16;5013448;28;20038;-70
2022/05/05 07:48:16;;;;;;;57.45;33.22;;;;;;;14.08;69.46;101958.19;5013085;28;20073;-70
2022/05/05 07:50:42;;;;;;;49.70;33.50;;;;;;;14.08;68.72;101954.63;5013494;28;20467;-69
2022/05/05 07:53:07;;;;;;;49.30;31.92;;;;;;;14.20;69.15;101952.03;5012773;28;20018;-70
2022/05/05 07:55:32;;;;;;;46.00;32.03;;;;;;;14.35;69.96;101966.13;5012988;28;20022;-70
2022/05/05 07:57:58;;;;;;;46.05;31.10;;;;;;;14.44;68.89;101955.78;5012959;28;20389;-69
2022/05/05 08:00:23;;;;;;;51.55;30.05;;;;;;;14.42;67.03;101966.91;5012620;28;20103;-69
2022/05/05 08:02:48;;;;;;;45.50;30.20;;;;;;;14.42;67.26;101972.34;5028563;28;20050;-69
2022/05/05 08:05:14;;;;;;;44.65;29.60;;;;;;;14.49;67.38;101966.84;5032259;28;20037;-70
2022/05/05 08:07:43;;;;;;;44.45;30.60;;;;;;;14.58;68.56;101972.84;5032676;28;20053;-70
2022/05/05 08:10:09;;;;;;;44.33;29.73;;;;;;;14.66;68.64;101970.69;5032506;28;20037;-69
2022/05/05 08:12:36;;;;;;;46.50;29.85;;;;;;;14.69;66.96;101966.69;5032572;28;20133;-70
2022/05/05 08:15:04;;;;;;;45.03;31.77;;;;;;;14.59;65.73;101971.78;5031193;28;20123;-70
2022/05/05 08:17:29;;;;;;;50.50;30.98;;;;;;;14.50;65.96;101969.34;5032444;28;20029;-69
2022/05/05 08:19:54;;;;;;;50.30;32.42;;;;;;;14.43;66.96;101973.19;5032627;28;20112;-68
2022/05/05 08:22:20;;;;;;;53.83;33.30;;;;;;;14.42;67.29;101976.94;5032357;28;20033;-69
2022/05/05 08:30:13;;;;;;;47.88;32.47;;;;;;;14.20;67.49;101979.25;5032022;28;20194;-69
2022/05/05 08:32:38;;;;;;;52.05;33.33;;;;;;;14.18;68.20;101987.63;5031248;28;20112;-69
2022/05/05 08:35:04;;;;;;;45.00;31.73;;;;;;;14.12;67.79;101977.63;5032153;28;20060;-69
2022/05/05 08:37:29;;;;;;;50.50;33.72;;;;;;;14.14;68.64;101986.41;5015050;28;20049;-69
2022/05/05 08:39:54;;;;;;;52.63;34.30;;;;;;;14.16;67.84;101989.72;5032417;28;20377;-70
2022/05/05 08:42:20;;;;;;;51.35;34.13;;;;;;;14.17;68.43;101986.78;5032437;28;20030;-70
2022/05/05 08:44:45;;;;;;;49.78;33.67;;;;;;;14.24;68.38;101997.63;5031207;28;20030;-71
2022/05/05 08:47:14;;;;;;;50.22;32.92;;;;;;;14.24;68.15;101997.63;5032089;28;20053;-70
2022/05/05 08:49:40;;;;;;;49.58;32.63;;;;;;;14.26;68.30;101995.53;5032066;28;20038;-69
2022/05/05 08:52:08;;;;;;;52.85;33.10;;;;;;;14.30;68.25;102004.91;5034154;28;20037;-70
2022/05/05 08:54:34;;;;;;;46.50;31.33;;;;;;;14.32;67.61;102004.69;5036423;28;20025;-70
2022/05/05 08:57:00;;;;;;;47.75;31.67;;;;;;;14.34;68.28;102003.44;5036262;28;20045;-70
2022/05/05 08:59:25;;;;;;;48.85;31.38;;;;;;;14.41;69.15;102000.63;5036119;28;20109;-70
2022/05/05 09:01:51;;;;;;;47.20;33.30;;;;;;;14.46;68.24;102005.41;5033082;28;20052;-70
2022/05/05 09:04:17;;;;;;;44.85;31.80;;;;;;;14.54;68.50;102005.97;5036038;28;20029;-69
2022/05/05 09:06:46;;;;;;;47.30;33.80;;;;;;;14.58;68.23;102016.44;5036195;28;20046;-71
2022/05/05 09:09:27;;;;;;;48.63;31.98;;;;;;;14.66;68.41;102006.13;5034585;28;20064;-70
2022/05/05 09:12:14;;;;;;;44.35;31.13;;;;;;;14.76;67.34;102013.75;5036039;28;20033;-70
2022/05/05 09:14:49;;;;;;;50.15;33.08;;;;;;;14.76;68.13;102011.03;5036012;28;20025;-70
2022/05/05 09:17:18;;;;;;;44.72;30.00;;;;;;;14.77;65.55;102014.63;5034444;28;20044;-69
2022/05/05 09:19:46;;;;;;;45.95;31.08;;;;;;;14.81;67.09;102023.97;5035805;28;20029;-69
2022/05/05 09:22:13;;;;;;;47.05;31.00;;;;;;;14.83;67.36;102019.16;5035538;28;20476;-69
2022/05/05 09:24:43;;;;;;;48.63;30.80;;;;;;;14.91;67.55;102016.13;5034647;28;20477;-70
2022/05/05 09:27:26;;;;;;;47.42;32.78;;;;;;;14.96;67.08;102027.22;5035477;28;20057;-70
2022/05/05 09:30:04;;;;;;;44.70;31.33;;;;;;;14.94;66.77;102023.84;5035958;28;20041;-69
2022/05/05 09:32:34;;;;;;;43.95;30.67;;;;;;;14.87;66.32;102023.09;5035668;28;20036;-70
2022/05/05 09:35:02;;;;;;;44.97;31.77;;;;;;;14.88;67.14;102024.75;5035730;28;20177;-70
2022/05/05 09:37:28;;;;;;;45.13;31.30;;;;;;;14.93;66.50;102033.13;5035341;28;20049;-70
2022/05/05 09:39:58;;;;;;;46.70;31.45;;;;;;;14.99;66.47;102037.66;5035475;28;20116;-70
2022/05/05 09:42:53;;;;;;;45.70;30.45;;;;;;;15.03;67.07;102030.66;5035416;28;20029;-69
2022/05/05 09:45:32;;;;;;;42.60;31.95;;;;;;;15.10;67.27;102037.94;5022421;28;20041;-70
2022/05/05 09:48:05;;;;;;;51.58;32.03;;;;;;;15.13;66.12;102027.44;5035342;28;20021;-69
2022/05/05 09:50:33;;;;;;;51.67;31.42;;;;;;;15.20;66.34;102033.66;5035343;28;20060;-70
2022/05/05 09:58:40;;;;;;;45.22;30.75;;;;;;;15.35;65.33;102043.34;5035214;28;20067;-69
2022/05/05 10:01:13;;;;;;;47.60;32.10;;;;;;;15.38;64.92;102040.16;5027388;28;20497;-70
2022/05/05 10:04:01;;;;;;;44.88;31.20;;;;;;;15.49;65.94;102038.53;5014475;28;20053;-70
2022/05/05 10:06:34;;;;;;;46.65;32.13;;;;;;;15.52;64.67;102036.22;5015108;28;20057;-69
2022/05/05 10:09:03;;;;;;;47.35;32.97;;;;;;;15.52;64.20;102033.50;5015125;28;20429;-70
2022/05/05 10:11:29;;;;;;;48.15;33.05;;;;;;;15.53;64.34;102043.31;5014643;28;20529;-69
2022/05/05 10:13:56;;;;;;;43.30;32.38;;;;;;;15.65;64.33;102042.56;5015173;28;20036;-71
2022/05/05 10:16:22;;;;;;;46.40;33.83;;;;;;;15.66;62.95;102042.31;5014967;28;20057;-70
2022/05/05 10:18:47;;;;;;;50.90;34.13;;;;;;;15.61;62.57;102039.47;5014828;28;20601;-70
2022/05/05 10:21:51;;;;;;;45.60;32.40;;;;;;;15.72;63.57;102037.84;5013541;28;20080;-70
2022/05/05 10:24:25;;;;;;;44.22;32.30;;;;;;;15.55;62.67;102040.34;5014753;28;20022;-70
2022/05/05 10:26:56;;;;;;;46.03;33.13;;;;;;;15.50;62.81;102037.50;5014692;28;20116;-71
2022/05/05 10:29:31;;;;;;;47.10;32.15;;;;;;;15.53;62.45;102045.22;5014661;28;20034;-70
2022/05/05 10:32:10;;;;;;;48.17;33.88;;;;;;;15.56;63.12;102042.84;5014515;28;20385;-68
2022/05/05 10:34:37;;;;;;;44.45;33.15;;;;;;;15.55;62.33;102035.75;5014852;28;20523;-70
2022/05/05 10:37:05;;;;;;;44.47;32.45;;;;;;;15.56;62.07;102040.13;5014869;28;20030;-69
2022/05/05 10:39:42;;;;;;;43.88;32.35;;;;;;;15.65;62.47;102037.09;5014488;28;20038;-70
2022/05/05 10:42:14;;;;;;;41.30;31.33;;;;;;;15.66;61.73;102044.22;5014461;28;20112;-69
2022/05/05 10:45:02;;;;;;;46.13;32.33;;;;;;;15.75;62.37;102042.84;5013335;28;20354;-70
2022/05/05 10:48:24;;;;;;;41.80;30.80;;;;;;;15.90;61.69;102045.19;5014294;28;20026;-70
2022/05/05 10:50:52;;;;;;;43.13;30.33;;;;;;;15.95;61.65;102048.06;5013095;28;20048;-71
2022/05/05 10:53:39;;;;;;;41.05;30.20;;;;;;;16.10;61.46;102040.25;5014284;28;20057;-71
2022/05/05 10:56:25;;;;;;;43.72;31.00;;;;;;;16.10;60.32;102034.81;5014706;28;20025;-71
2022/05/05 10:59:07;;;;;;;42.42;30.73;;;;;;;16.12;59.81;102040.88;5013096;28;20096;-70
2022/05/05 11:01:42;;;;;;;42.47;29.88;;;;;;;16.22;59.94;102047.66;5010763;28;20076;-71
2022/05/05 11:04:15;;;;;;;45.33;30.17;;;;;;;16.32;60.41;102045.22;5013994;28;20037;-71
2022/05/05 11:06:42;;;;;;;43.05;29.77;;;;;;;16.35;58.64;102039.28;5012756;28;20481;-70
2022/05/05 11:09:08;;;;;;;39.63;28.90;;;;;;;16.44;58.58;102037.00;5014095;28;20061;-70
2022/05/05 11:11:42;;;;;;;41.60;30.13;;;;;;;16.43;58.59;102038.91;5014149;28;20394;-68
2022/05/05 11:23:08;;;;;;;42.80;28.63;;;;;;;16.82;57.82;102030.28;5014002;28;20072;-71
2022/05/05 11:25:35;;;;;;;39.42;28.85;;;;;;;16.78;56.80;102032.63;5013417;28;20100;-71
2022/05/05 11:28:00;;;;;;;46.22;30.00;;;;;;;16.97;57.20;102027.09;5013705;28;20029;-69
2022/05/05 11:30:26;;;;;;;38.00;28.08;;;;;;;16.98;55.62;102029.59;5013566;28;20079;-70
2022/05/05 11:32:51;;;;;;;45.60;27.73;;;;;;;17.07;56.29;102030.03;5013400;28;20041;-69
2022/05/05 11:35:23;;;;;;;40.78;28.50;;;;;;;17.14;55.93;102033.47;5013184;28;20045;-69
2022/05/05 11:37:48;;;;;;;38.85;28.00;;;;;;;17.42;57.87;102034.63;5013328;28;20425;-69
2022/05/05 11:40:14;;;;;;;41.95;28.23;;;;;;;17.60;56.78;102027.28;5013366;28;20061;-70
2022/05/05 11:45:30;;;;;;;44.17;27.90;;;;;;;17.67;54.53;102033.47;5013110;28;20036;-70
2022/05/05 11:47:56;;;;;;;38.70;27.38;;;;;;;17.77;54.60;102028.19;5013407;28;20446;-71
2022/05/05 11:50:21;;;;;;;38.90;26.85;;;;;;;17.80;53.92;102032.31;5013186;28;20046;-69
2022/05/05 11:52:47;;;;;;;36.53;24.85;;;;;;;17.73;52.96;102032.50;5012019;28;20553;-70
2022/05/05 11:55:13;;;;;;;30.77;23.30;;;;;;;17.73;52.49;102032.50;5012820;28;20038;-70
2022/05/05 11:57:41;;;;;;;36.25;23.30;;;;;;;17.66;51.93;102035.38;5013308;28;20033;-71